Kent, Illinois
Current Conditions -  °F | °C
As of 3:35 PM on Saturday 22 Nov 2014 (Local Time) from KFEP Reporting Station
Haze Haze  
Wind Chill: 43°   Ceiling: 1900
Heat Index: 48°   Visibility: 5mi
Dew Point: 46°   Wind: 13mph
Humidity: 92%   Direction: 210°SSW
Pressure: 29.83"   Gusts: NA
Location:  42.31°N, 89.9°W
Report Text: KFEP 222135Z AUTO 21011KT 5SM BR SCT012 BKN019 OVC025 09/08 A2983 RMK AO2 T00900078
Loading
Personal Weather Stations






























Interactive Weather Map New forecast layout! Learn more

10-Day Weather Forecast

Advertisements
Track Severe Weather on mobile